sensor_id;sensor_type;location;lat;lon;timestamp;pressure;altitude;pressure_sealevel;temperature;humidity
25430;BME280;13360;48.152;-1.788;2022-12-20T00:00:20;104446.25;;;12.79;100.00
25430;BME280;13360;48.152;-1.788;2022-12-20T00:02:46;104413.22;;;12.71;100.00
25430;BME280;13360;48.152;-1.788;2022-12-20T00:05:12;104396.16;;;12.68;100.00
25430;BME280;13360;48.152;-1.788;2022-12-20T00:07:37;104374.91;;;12.55;100.00
25430;BME280;13360;48.152;-1.788;2022-12-20T00:10:03;104373.41;;;12.59;100.00
25430;BME280;13360;48.152;-1.788;2022-12-20T00:12:28;104351.47;;;12.51;100.00
25430;BME280;13360;48.152;-1.788;2022-12-20T00:14:53;104350.81;;;12.56;100.00
25430;BME280;13360;48.152;-1.788;2022-12-20T00:17:19;104341.19;;;12.58;100.00
25430;BME280;13360;48.152;-1.788;2022-12-20T00:19:45;104322.63;;;12.59;100.00
25430;BME280;13360;48.152;-1.788;2022-12-20T00:22:10;104315.38;;;12.58;100.00
25430;BME280;13360;48.152;-1.788;2022-12-20T00:24:36;104295.09;;;12.57;100.00
25430;BME280;13360;48.152;-1.788;2022-12-20T00:27:01;104292.28;;;12.64;100.00
25430;BME280;13360;48.152;-1.788;2022-12-20T00:29:26;104267.38;;;12.57;100.00
25430;BME280;13360;48.152;-1.788;2022-12-20T00:31:52;104255.66;;;12.55;100.00
25430;BME280;13360;48.152;-1.788;2022-12-20T00:34:17;104225.16;;;12.55;100.00
25430;BME280;13360;48.152;-1.788;2022-12-20T00:36:42;104221.94;;;12.58;100.00
25430;BME280;13360;48.152;-1.788;2022-12-20T00:39:09;104202.13;;;12.55;100.00
25430;BME280;13360;48.152;-1.788;2022-12-20T00:41:34;104195.50;;;12.56;100.00
25430;BME280;13360;48.152;-1.788;2022-12-20T00:44:01;104186.09;;;12.57;100.00
25430;BME280;13360;48.152;-1.788;2022-12-20T00:46:26;104165.91;;;12.49;100.00
25430;BME280;13360;48.152;-1.788;2022-12-20T00:48:53;104158.59;;;12.55;100.00
25430;BME280;13360;48.152;-1.788;2022-12-20T00:51:22;104144.13;;;12.53;100.00
25430;BME280;13360;48.152;-1.788;2022-12-20T00:53:47;104138.56;;;12.53;100.00
25430;BME280;13360;48.152;-1.788;2022-12-20T00:56:13;104134.50;;;12.56;100.00
25430;BME280;13360;48.152;-1.788;2022-12-20T00:58:40;104129.94;;;12.61;100.00
25430;BME280;13360;48.152;-1.788;2022-12-20T01:03:40;104098.22;;;12.57;100.00
25430;BME280;13360;48.152;-1.788;2022-12-20T01:06:05;104088.97;;;12.63;100.00
25430;BME280;13360;48.152;-1.788;2022-12-20T01:08:30;104083.41;;;12.63;100.00
25430;BME280;13360;48.152;-1.788;2022-12-20T01:11:02;104079.19;;;12.61;100.00
25430;BME280;13360;48.152;-1.788;2022-12-20T01:13:29;104075.72;;;12.65;100.00
25430;BME280;13360;48.152;-1.788;2022-12-20T01:15:54;104059.91;;;12.66;100.00
25430;BME280;13360;48.152;-1.788;2022-12-20T01:18:20;104058.16;;;12.71;100.00
25430;BME280;13360;48.152;-1.788;2022-12-20T01:20:45;104050.47;;;12.73;100.00
25430;BME280;13360;48.152;-1.788;2022-12-20T01:23:10;104048.75;;;12.72;100.00
25430;BME280;13360;48.152;-1.788;2022-12-20T01:25:36;104040.22;;;12.74;100.00
25430;BME280;13360;48.152;-1.788;2022-12-20T01:28:01;104038.91;;;12.76;100.00
25430;BME280;13360;48.152;-1.788;2022-12-20T01:30:27;104033.34;;;12.76;100.00
25430;BME280;13360;48.152;-1.788;2022-12-20T01:32:52;104036.34;;;12.75;100.00
25430;BME280;13360;48.152;-1.788;2022-12-20T01:35:17;104050.59;;;12.78;100.00
25430;BME280;13360;48.152;-1.788;2022-12-20T01:37:43;104047.22;;;12.76;100.00
25430;BME280;13360;48.152;-1.788;2022-12-20T01:40:08;104057.00;;;12.79;100.00
25430;BME280;13360;48.152;-1.788;2022-12-20T01:42:35;104055.06;;;12.79;100.00
25430;BME280;13360;48.152;-1.788;2022-12-20T01:45:01;104075.44;;;12.92;100.00
25430;BME280;13360;48.152;-1.788;2022-12-20T01:47:29;104069.16;;;12.96;100.00
25430;BME280;13360;48.152;-1.788;2022-12-20T01:49:57;104060.69;;;12.91;100.00
25430;BME280;13360;48.152;-1.788;2022-12-20T01:52:38;104067.09;;;12.92;100.00
25430;BME280;13360;48.152;-1.788;2022-12-20T01:57:53;104089.91;;;12.94;100.00
25430;BME280;13360;48.152;-1.788;2022-12-20T02:00:21;104100.16;;;12.93;100.00
25430;BME280;13360;48.152;-1.788;2022-12-20T02:02:48;104112.09;;;12.94;100.00
25430;BME280;13360;48.152;-1.788;2022-12-20T02:05:16;104119.59;;;12.93;100.00
25430;BME280;13360;48.152;-1.788;2022-12-20T02:07:43;104123.59;;;12.97;100.00
25430;BME280;13360;48.152;-1.788;2022-12-20T02:10:10;104124.91;;;12.95;100.00
25430;BME280;13360;48.152;-1.788;2022-12-20T02:12:44;104131.31;;;12.95;100.00
25430;BME280;13360;48.152;-1.788;2022-12-20T02:15:20;104147.47;;;12.98;100.00
25430;BME280;13360;48.152;-1.788;2022-12-20T02:31:34;104198.06;;;13.00;100.00
25430;BME280;13360;48.152;-1.788;2022-12-20T02:34:03;104192.72;;;12.99;100.00
25430;BME280;13360;48.152;-1.788;2022-12-20T02:36:29;104211.09;;;13.00;100.00
25430;BME280;13360;48.152;-1.788;2022-12-20T02:38:55;104218.94;;;13.03;100.00
25430;BME280;13360;48.152;-1.788;2022-12-20T02:41:25;104219.78;;;13.03;100.00
25430;BME280;13360;48.152;-1.788;2022-12-20T02:43:56;104237.28;;;13.04;100.00
25430;BME280;13360;48.152;-1.788;2022-12-20T02:46:42;104238.38;;;13.03;100.00
25430;BME280;13360;48.152;-1.788;2022-12-20T02:49:14;104254.78;;;13.04;100.00
25430;BME280;13360;48.152;-1.788;2022-12-20T02:51:43;104269.06;;;13.08;100.00
25430;BME280;13360;48.152;-1.788;2022-12-20T02:54:09;104272.44;;;13.10;100.00
25430;BME280;13360;48.152;-1.788;2022-12-20T02:56:39;104278.47;;;13.07;100.00
25430;BME280;13360;48.152;-1.788;2022-12-20T02:59:20;104280.16;;;13.08;100.00
25430;BME280;13360;48.152;-1.788;2022-12-20T03:01:50;104284.25;;;13.05;100.00
25430;BME280;13360;48.152;-1.788;2022-12-20T03:04:17;104289.19;;;13.03;100.00
25430;BME280;13360;48.152;-1.788;2022-12-20T03:07:00;104303.66;;;13.05;100.00
25430;BME280;13360;48.152;-1.788;2022-12-20T03:09:27;104313.06;;;13.04;100.00
25430;BME280;13360;48.152;-1.788;2022-12-20T03:11:53;104334.81;;;13.07;100.00
25430;BME280;13360;48.152;-1.788;2022-12-20T03:14:19;104347.63;;;13.08;100.00
25430;BME280;13360;48.152;-1.788;2022-12-20T03:16:44;104344.00;;;13.08;100.00
25430;BME280;13360;48.152;-1.788;2022-12-20T03:19:09;104357.41;;;13.11;100.00
25430;BME280;13360;48.152;-1.788;2022-12-20T03:21:35;104358.28;;;13.11;100.00
25430;BME280;13360;48.152;-1.788;2022-12-20T03:24:00;104374.72;;;13.13;100.00
25430;BME280;13360;48.152;-1.788;2022-12-20T03:26:25;104382.22;;;13.12;100.00
25430;BME280;13360;48.152;-1.788;2022-12-20T03:28:51;104394.16;;;13.13;100.00
25430;BME280;13360;48.152;-1.788;2022-12-20T03:31:17;104394.56;;;13.17;100.00
25430;BME280;13360;48.152;-1.788;2022-12-20T03:33:42;104413.34;;;13.21;100.00
25430;BME280;13360;48.152;-1.788;2022-12-20T03:36:07;104409.47;;;13.22;100.00
25430;BME280;13360;48.152;-1.788;2022-12-20T03:38:33;104407.72;;;13.28;100.00
25430;BME280;13360;48.152;-1.788;2022-12-20T03:40:58;104425.34;;;13.40;100.00
25430;BME280;13360;48.152;-1.788;2022-12-20T03:43:23;104409.38;;;13.35;100.00
25430;BME280;13360;48.152;-1.788;2022-12-20T03:45:49;104415.38;;;13.32;100.00
25430;BME280;13360;48.152;-1.788;2022-12-20T03:48:14;104423.53;;;13.27;100.00
25430;BME280;13360;48.152;-1.788;2022-12-20T03:50:40;104435.09;;;13.24;100.00
25430;BME280;13360;48.152;-1.788;2022-12-20T03:53:05;104448.97;;;13.24;100.00
25430;BME280;13360;48.152;-1.788;2022-12-20T03:55:31;104459.47;;;13.22;100.00
25430;BME280;13360;48.152;-1.788;2022-12-20T03:57:56;104471.19;;;13.24;100.00
25430;BME280;13360;48.152;-1.788;2022-12-20T04:00:21;104482.91;;;13.26;100.00
25430;BME280;13360;48.152;-1.788;2022-12-20T04:02:47;104498.50;;;13.27;100.00
25430;BME280;13360;48.152;-1.788;2022-12-20T04:05:12;104513.91;;;13.23;100.00
25430;BME280;13360;48.152;-1.788;2022-12-20T04:07:38;104531.19;;;13.25;100.00
25430;BME280;13360;48.152;-1.788;2022-12-20T04:10:03;104560.22;;;13.29;100.00
25430;BME280;13360;48.152;-1.788;2022-12-20T04:12:29;104580.28;;;13.31;100.00
25430;BME280;13360;48.152;-1.788;2022-12-20T04:14:54;104573.47;;;13.27;100.00
25430;BME280;13360;48.152;-1.788;2022-12-20T04:17:20;104610.19;;;13.29;100.00
25430;BME280;13360;48.152;-1.788;2022-12-20T04:19:45;104609.34;;;13.29;100.00
25430;BME280;13360;48.152;-1.788;2022-12-20T04:22:11;104645.84;;;13.32;100.00
25430;BME280;13360;48.152;-1.788;2022-12-20T04:24:36;104661.44;;;13.40;100.00
25430;BME280;13360;48.152;-1.788;2022-12-20T04:27:02;104674.88;;;13.43;100.00
25430;BME280;13360;48.152;-1.788;2022-12-20T04:29:27;104677.38;;;13.51;100.00
25430;BME280;13360;48.152;-1.788;2022-12-20T04:31:52;104688.25;;;13.53;100.00
25430;BME280;13360;48.152;-1.788;2022-12-20T04:34:18;104663.34;;;13.39;100.00
25430;BME280;13360;48.152;-1.788;2022-12-20T04:36:43;104665.91;;;13.41;100.00
25430;BME280;13360;48.152;-1.788;2022-12-20T04:39:08;104691.09;;;13.46;100.00
25430;BME280;13360;48.152;-1.788;2022-12-20T04:41:34;104687.47;;;13.46;100.00
25430;BME280;13360;48.152;-1.788;2022-12-20T04:43:59;104697.09;;;13.43;100.00
25430;BME280;13360;48.152;-1.788;2022-12-20T04:46:25;104704.78;;;13.41;100.00
25430;BME280;13360;48.152;-1.788;2022-12-20T04:48:51;104721.63;;;13.46;100.00
25430;BME280;13360;48.152;-1.788;2022-12-20T04:51:16;104729.75;;;13.54;100.00
25430;BME280;13360;48.152;-1.788;2022-12-20T04:53:42;104717.59;;;13.42;100.00
25430;BME280;13360;48.152;-1.788;2022-12-20T04:56:22;104717.41;;;13.37;100.00
25430;BME280;13360;48.152;-1.788;2022-12-20T04:58:50;104719.78;;;13.33;100.00
25430;BME280;13360;48.152;-1.788;2022-12-20T05:01:16;104729.38;;;13.31;100.00
25430;BME280;13360;48.152;-1.788;2022-12-20T05:03:42;104738.38;;;13.33;100.00
25430;BME280;13360;48.152;-1.788;2022-12-20T05:06:07;104745.81;;;13.32;100.00
25430;BME280;13360;48.152;-1.788;2022-12-20T05:08:33;104747.75;;;13.32;100.00
25430;BME280;13360;48.152;-1.788;2022-12-20T05:10:58;104751.81;;;13.29;100.00
25430;BME280;13360;48.152;-1.788;2022-12-20T05:13:24;104769.56;;;13.35;100.00
25430;BME280;13360;48.152;-1.788;2022-12-20T05:15:51;104762.47;;;13.32;100.00
25430;BME280;13360;48.152;-1.788;2022-12-20T05:18:16;104759.69;;;13.32;100.00
25430;BME280;13360;48.152;-1.788;2022-12-20T05:20:41;104776.38;;;13.32;100.00
25430;BME280;13360;48.152;-1.788;2022-12-20T05:23:08;104775.09;;;13.35;100.00
25430;BME280;13360;48.152;-1.788;2022-12-20T05:25:52;104783.66;;;13.33;100.00
25430;BME280;13360;48.152;-1.788;2022-12-20T05:28:36;104805.19;;;13.45;100.00
25430;BME280;13360;48.152;-1.788;2022-12-20T05:31:02;104771.69;;;13.33;100.00
25430;BME280;13360;48.152;-1.788;2022-12-20T05:33:28;104781.50;;;13.29;100.00
25430;BME280;13360;48.152;-1.788;2022-12-20T05:35:54;104795.19;;;13.30;100.00
25430;BME280;13360;48.152;-1.788;2022-12-20T05:38:20;104795.63;;;13.27;100.00
25430;BME280;13360;48.152;-1.788;2022-12-20T05:40:47;104793.91;;;13.26;100.00
25430;BME280;13360;48.152;-1.788;2022-12-20T05:43:13;104818.47;;;13.29;100.00
25430;BME280;13360;48.152;-1.788;2022-12-20T05:45:38;104826.78;;;13.29;100.00
25430;BME280;13360;48.152;-1.788;2022-12-20T05:48:03;104840.25;;;13.32;100.00
25430;BME280;13360;48.152;-1.788;2022-12-20T05:50:29;104846.00;;;13.31;100.00
25430;BME280;13360;48.152;-1.788;2022-12-20T05:52:54;104849.88;;;13.30;100.00
25430;BME280;13360;48.152;-1.788;2022-12-20T05:55:20;104862.69;;;13.31;100.00
25430;BME280;13360;48.152;-1.788;2022-12-20T05:57:45;104879.34;;;13.37;100.00
25430;BME280;13360;48.152;-1.788;2022-12-20T06:00:11;104885.75;;;13.31;100.00
25430;BME280;13360;48.152;-1.788;2022-12-20T06:02:37;104895.38;;;13.35;100.00
25430;BME280;13360;48.152;-1.788;2022-12-20T06:05:03;104901.56;;;13.37;100.00
25430;BME280;13360;48.152;-1.788;2022-12-20T06:07:28;104921.84;;;13.45;100.00
25430;BME280;13360;48.152;-1.788;2022-12-20T06:09:55;104910.53;;;13.46;100.00
25430;BME280;13360;48.152;-1.788;2022-12-20T06:12:20;104875.31;;;13.33;100.00
25430;BME280;13360;48.152;-1.788;2022-12-20T06:14:46;104887.66;;;13.31;100.00
25430;BME280;13360;48.152;-1.788;2022-12-20T06:17:12;104895.16;;;13.30;100.00
25430;BME280;13360;48.152;-1.788;2022-12-20T06:19:37;104902.41;;;13.31;100.00
25430;BME280;13360;48.152;-1.788;2022-12-20T06:22:06;104903.47;;;13.30;100.00
25430;BME280;13360;48.152;-1.788;2022-12-20T06:24:31;104909.88;;;13.31;100.00
25430;BME280;13360;48.152;-1.788;2022-12-20T06:26:57;104928.06;;;13.33;100.00
25430;BME280;13360;48.152;-1.788;2022-12-20T06:29:23;104925.28;;;13.33;100.00
25430;BME280;13360;48.152;-1.788;2022-12-20T06:31:49;104922.69;;;13.32;100.00
25430;BME280;13360;48.152;-1.788;2022-12-20T06:34:14;104930.00;;;13.33;100.00
25430;BME280;13360;48.152;-1.788;2022-12-20T06:36:40;104930.84;;;13.33;100.00
25430;BME280;13360;48.152;-1.788;2022-12-20T06:39:05;104940.88;;;13.34;100.00
25430;BME280;13360;48.152;-1.788;2022-12-20T06:41:33;104937.03;;;13.35;100.00
25430;BME280;13360;48.152;-1.788;2022-12-20T06:43:58;104939.19;;;13.33;100.00
25430;BME280;13360;48.152;-1.788;2022-12-20T06:46:24;104953.72;;;13.35;100.00
25430;BME280;13360;48.152;-1.788;2022-12-20T06:48:49;104946.84;;;13.31;100.00
25430;BME280;13360;48.152;-1.788;2022-12-20T06:51:15;104950.28;;;13.33;100.00
25430;BME280;13360;48.152;-1.788;2022-12-20T06:53:41;104958.19;;;13.36;100.00
25430;BME280;13360;48.152;-1.788;2022-12-20T06:56:07;104959.03;;;13.37;100.00
25430;BME280;13360;48.152;-1.788;2022-12-20T06:58:32;104958.84;;;13.38;100.00
25430;BME280;13360;48.152;-1.788;2022-12-20T07:00:57;104958.63;;;13.40;100.00
25430;BME280;13360;48.152;-1.788;2022-12-20T07:03:23;104960.97;;;13.36;100.00
25430;BME280;13360;48.152;-1.788;2022-12-20T07:05:52;104964.81;;;13.35;100.00
25430;BME280;13360;48.152;-1.788;2022-12-20T07:08:18;104956.28;;;13.37;100.00
25430;BME280;13360;48.152;-1.788;2022-12-20T07:10:44;104963.53;;;13.38;100.00
25430;BME280;13360;48.152;-1.788;2022-12-20T07:13:09;104970.78;;;13.39;100.00
25430;BME280;13360;48.152;-1.788;2022-12-20T07:15:35;104945.38;;;13.35;100.00
25430;BME280;13360;48.152;-1.788;2022-12-20T07:18:00;104966.53;;;13.36;100.00
25430;BME280;13360;48.152;-1.788;2022-12-20T07:20:26;104970.78;;;13.39;100.00
25430;BME280;13360;48.152;-1.788;2022-12-20T07:22:51;104964.59;;;13.37;100.00
25430;BME280;13360;48.152;-1.788;2022-12-20T07:25:16;104963.53;;;13.38;100.00
25430;BME280;13360;48.152;-1.788;2022-12-20T07:27:42;104955.84;;;13.33;100.00
25430;BME280;13360;48.152;-1.788;2022-12-20T07:30:08;104968.44;;;13.36;100.00
25430;BME280;13360;48.152;-1.788;2022-12-20T07:32:33;104963.53;;;13.38;100.00
25430;BME280;13360;48.152;-1.788;2022-12-20T07:34:58;104971.66;;;13.39;100.00
25430;BME280;13360;48.152;-1.788;2022-12-20T07:37:27;104971.66;;;13.39;100.00
25430;BME280;13360;48.152;-1.788;2022-12-20T07:39:53;104973.13;;;13.42;100.00
25430;BME280;13360;48.152;-1.788;2022-12-20T07:42:18;104969.94;;;13.38;100.00
25430;BME280;13360;48.152;-1.788;2022-12-20T07:44:43;104967.16;;;13.38;100.00
25430;BME280;13360;48.152;-1.788;2022-12-20T07:47:09;104969.94;;;13.38;100.00
25430;BME280;13360;48.152;-1.788;2022-12-20T07:49:34;104980.63;;;13.41;100.00
25430;BME280;13360;48.152;-1.788;2022-12-20T07:52:01;104972.72;;;13.38;100.00
25430;BME280;13360;48.152;-1.788;2022-12-20T07:54:37;104975.91;;;13.42;100.00
25430;BME280;13360;48.152;-1.788;2022-12-20T07:57:14;104982.31;;;13.42;100.00
25430;BME280;13360;48.152;-1.788;2022-12-20T07:59:44;104973.13;;;13.42;100.00
25430;BME280;13360;48.152;-1.788;2022-12-20T08:02:14;104973.34;;;13.40;100.00
25430;BME280;13360;48.152;-1.788;2022-12-20T08:04:41;104960.75;;;13.38;100.00
25430;BME280;13360;48.152;-1.788;2022-12-20T08:07:08;104957.13;;;13.37;100.00
25430;BME280;13360;48.152;-1.788;2022-12-20T08:09:36;104965.03;;;13.40;100.00
25430;BME280;13360;48.152;-1.788;2022-12-20T08:12:04;104954.56;;;13.42;100.00
25430;BME280;13360;48.152;-1.788;2022-12-20T08:14:30;104969.06;;;13.45;100.00
25430;BME280;13360;48.152;-1.788;2022-12-20T08:16:56;104965.66;;;13.42;100.00
25430;BME280;13360;48.152;-1.788;2022-12-20T08:19:21;104952.63;;;13.36;100.00
25430;BME280;13360;48.152;-1.788;2022-12-20T08:21:46;104956.91;;;13.39;100.00
25430;BME280;13360;48.152;-1.788;2022-12-20T08:24:12;104954.97;;;13.39;100.00
25430;BME280;13360;48.152;-1.788;2022-12-20T08:26:39;104953.28;;;13.38;100.00
25430;BME280;13360;48.152;-1.788;2022-12-20T08:29:04;104961.19;;;13.41;100.00
25430;BME280;13360;48.152;-1.788;2022-12-20T08:31:30;104961.19;;;13.41;100.00
25430;BME280;13360;48.152;-1.788;2022-12-20T08:33:55;104961.81;;;13.43;100.00
25430;BME280;13360;48.152;-1.788;2022-12-20T08:36:21;104966.31;;;13.45;100.00
25430;BME280;13360;48.152;-1.788;2022-12-20T08:38:46;104959.25;;;13.42;100.00
25430;BME280;13360;48.152;-1.788;2022-12-20T08:41:13;104960.53;;;13.46;100.00
25430;BME280;13360;48.152;-1.788;2022-12-20T08:43:39;104954.75;;;13.48;100.00
25430;BME280;13360;48.152;-1.788;2022-12-20T08:46:06;104933.19;;;13.43;100.00
25430;BME280;13360;48.152;-1.788;2022-12-20T08:48:32;104944.06;;;13.45;100.00
25430;BME280;13360;48.152;-1.788;2022-12-20T08:50:59;104941.72;;;13.48;100.00
25430;BME280;13360;48.152;-1.788;2022-12-20T08:53:26;104930.19;;;13.45;100.00
25430;BME280;13360;48.152;-1.788;2022-12-20T08:55:52;104927.19;;;13.46;100.00
25430;BME280;13360;48.152;-1.788;2022-12-20T08:58:18;104923.78;;;13.44;100.00
25430;BME280;13360;48.152;-1.788;2022-12-20T09:00:43;104915.66;;;13.42;100.00
25430;BME280;13360;48.152;-1.788;2022-12-20T09:03:09;104907.53;;;13.41;100.00
25430;BME280;13360;48.152;-1.788;2022-12-20T09:05:36;104912.25;;;13.40;100.00
25430;BME280;13360;48.152;-1.788;2022-12-20T09:08:01;104909.66;;;13.46;100.00
25430;BME280;13360;48.152;-1.788;2022-12-20T09:10:26;104912.22;;;13.47;100.00
25430;BME280;13360;48.152;-1.788;2022-12-20T09:12:52;104899.84;;;13.50;100.00
25430;BME280;13360;48.152;-1.788;2022-12-20T09:15:17;104890.44;;;13.51;100.00
25430;BME280;13360;48.152;-1.788;2022-12-20T09:17:42;104894.69;;;13.53;100.00
25430;BME280;13360;48.152;-1.788;2022-12-20T09:20:08;104899.63;;;13.58;100.00
25430;BME280;13360;48.152;-1.788;2022-12-20T09:22:33;104883.38;;;13.55;100.00
25430;BME280;13360;48.152;-1.788;2022-12-20T09:24:59;104871.63;;;13.53;100.00
25430;BME280;13360;48.152;-1.788;2022-12-20T09:27:24;104880.19;;;13.58;100.00
25430;BME280;13360;48.152;-1.788;2022-12-20T09:29:49;104862.44;;;13.59;100.00
25430;BME280;13360;48.152;-1.788;2022-12-20T09:32:15;104844.91;;;13.58;100.00
25430;BME280;13360;48.152;-1.788;2022-12-20T09:34:40;104848.75;;;13.57;100.00
25430;BME280;13360;48.152;-1.788;2022-12-20T09:37:06;104841.06;;;13.53;100.00
25430;BME280;13360;48.152;-1.788;2022-12-20T09:39:31;104835.09;;;13.56;100.00
25430;BME280;13360;48.152;-1.788;2022-12-20T09:41:57;104815.19;;;13.52;100.00
25430;BME280;13360;48.152;-1.788;2022-12-20T09:44:27;104817.13;;;13.52;100.00
25430;BME280;13360;48.152;-1.788;2022-12-20T09:46:58;104795.38;;;13.42;100.00
25430;BME280;13360;48.152;-1.788;2022-12-20T09:49:33;104801.97;;;13.48;100.00
25430;BME280;13360;48.152;-1.788;2022-12-20T09:52:04;104796.41;;;13.48;100.00
25430;BME280;13360;48.152;-1.788;2022-12-20T09:54:47;104795.56;;;13.47;100.00
25430;BME280;13360;48.152;-1.788;2022-12-20T10:00:17;104778.69;;;13.49;100.00
25430;BME280;13360;48.152;-1.788;2022-12-20T10:02:43;104777.16;;;13.53;100.00
25430;BME280;13360;48.152;-1.788;2022-12-20T10:05:21;104762.63;;;13.51;100.00
25430;BME280;13360;48.152;-1.788;2022-12-20T10:15:59;104728.44;;;13.50;100.00
25430;BME280;13360;48.152;-1.788;2022-12-20T10:21:43;104678.31;;;13.32;100.00
25430;BME280;13360;48.152;-1.788;2022-12-20T10:24:16;104687.91;;;13.42;100.00
25430;BME280;13360;48.152;-1.788;2022-12-20T10:26:42;104687.91;;;13.42;100.00
25430;BME280;13360;48.152;-1.788;2022-12-20T10:29:08;104670.59;;;13.40;100.00
25430;BME280;13360;48.152;-1.788;2022-12-20T10:31:33;104667.84;;;13.40;100.00
25430;BME280;13360;48.152;-1.788;2022-12-20T10:34:00;104653.09;;;13.40;100.00
25430;BME280;13360;48.152;-1.788;2022-12-20T10:36:31;104642.22;;;13.38;100.00
25430;BME280;13360;48.152;-1.788;2022-12-20T10:38:59;104631.50;;;13.42;100.00
25430;BME280;13360;48.152;-1.788;2022-12-20T10:41:45;104607.84;;;13.33;100.00
25430;BME280;13360;48.152;-1.788;2022-12-20T10:44:24;104591.59;;;13.36;100.00
25430;BME280;13360;48.152;-1.788;2022-12-20T10:46:56;104604.13;;;13.46;100.00
25430;BME280;13360;48.152;-1.788;2022-12-20T10:49:31;104600.28;;;13.47;100.00
25430;BME280;13360;48.152;-1.788;2022-12-20T10:54:37;104569.09;;;13.45;100.00
25430;BME280;13360;48.152;-1.788;2022-12-20T10:57:19;104551.41;;;13.39;100.00
25430;BME280;13360;48.152;-1.788;2022-12-20T10:59:49;104542.63;;;13.42;100.00
25430;BME280;13360;48.152;-1.788;2022-12-20T11:07:31;104516.09;;;13.46;100.00
25430;BME280;13360;48.152;-1.788;2022-12-20T11:10:07;104502.44;;;13.45;100.00
25430;BME280;13360;48.152;-1.788;2022-12-20T11:13:01;104490.25;;;13.46;100.00
25430;BME280;13360;48.152;-1.788;2022-12-20T11:18:10;104478.28;;;13.45;100.00
25430;BME280;13360;48.152;-1.788;2022-12-20T11:21:39;104461.41;;;13.47;100.00
25430;BME280;13360;48.152;-1.788;2022-12-20T11:24:10;104462.22;;;13.54;100.00
25430;BME280;13360;48.152;-1.788;2022-12-20T11:26:57;104445.97;;;13.51;100.00
25430;BME280;13360;48.152;-1.788;2022-12-20T11:30:03;104429.78;;;13.48;100.00
25430;BME280;13360;48.152;-1.788;2022-12-20T11:32:33;104434.88;;;13.51;100.00
25430;BME280;13360;48.152;-1.788;2022-12-20T11:35:20;104417.78;;;13.54;100.00
25430;BME280;13360;48.152;-1.788;2022-12-20T11:37:54;104411.97;;;13.55;100.00
25430;BME280;13360;48.152;-1.788;2022-12-20T11:40:36;104394.47;;;13.55;100.00
25430;BME280;13360;48.152;-1.788;2022-12-20T11:43:22;104400.22;;;13.53;100.00
25430;BME280;13360;48.152;-1.788;2022-12-20T11:48:49;104389.53;;;13.57;100.00
25430;BME280;13360;48.152;-1.788;2022-12-20T11:51:44;104390.16;;;13.59;100.00
25430;BME280;13360;48.152;-1.788;2022-12-20T11:54:52;104379.19;;;13.64;100.00
25430;BME280;13360;48.152;-1.788;2022-12-20T11:57:27;104364.06;;;13.60;100.00
25430;BME280;13360;48.152;-1.788;2022-12-20T11:59:56;104357.03;;;13.57;100.00
25430;BME280;13360;48.152;-1.788;2022-12-20T12:02:36;104342.06;;;13.58;100.00
25430;BME280;13360;48.152;-1.788;2022-12-20T12:05:15;104341.22;;;13.58;100.00
25430;BME280;13360;48.152;-1.788;2022-12-20T12:07:49;104334.97;;;13.62;100.00
25430;BME280;13360;48.152;-1.788;2022-12-20T12:10:22;104334.34;;;13.60;100.00
25430;BME280;13360;48.152;-1.788;2022-12-20T12:12:57;104329.03;;;13.59;100.00
25430;BME280;13360;48.152;-1.788;2022-12-20T12:18:15;104310.06;;;13.56;100.00
25430;BME280;13360;48.152;-1.788;2022-12-20T12:26:09;104296.00;;;13.69;100.00
25430;BME280;13360;48.152;-1.788;2022-12-20T12:28:36;104272.88;;;13.57;100.00
25430;BME280;13360;48.152;-1.788;2022-12-20T12:31:12;104255.41;;;13.50;100.00
25430;BME280;13360;48.152;-1.788;2022-12-20T12:33:53;104258.41;;;13.48;100.00
25430;BME280;13360;48.152;-1.788;2022-12-20T12:36:38;104254.16;;;13.46;100.00
25430;BME280;13360;48.152;-1.788;2022-12-20T12:44:33;104241.22;;;13.39;100.00
25430;BME280;13360;48.152;-1.788;2022-12-20T12:47:05;104230.81;;;13.35;100.00
25430;BME280;13360;48.152;-1.788;2022-12-20T12:49:35;104228.28;;;13.33;100.00
25430;BME280;13360;48.152;-1.788;2022-12-20T12:52:04;104212.75;;;13.26;100.00
25430;BME280;13360;48.152;-1.788;2022-12-20T12:54:38;104193.53;;;13.24;100.00
25430;BME280;13360;48.152;-1.788;2022-12-20T13:04:54;104168.22;;;13.32;100.00
25430;BME280;13360;48.152;-1.788;2022-12-20T13:09:55;104136.78;;;13.20;100.00
25430;BME280;13360;48.152;-1.788;2022-12-20T13:15:02;104117.97;;;13.22;100.00
25430;BME280;13360;48.152;-1.788;2022-12-20T13:17:51;104120.28;;;13.25;100.00
25430;BME280;13360;48.152;-1.788;2022-12-20T13:20:28;104105.78;;;13.23;100.00
25430;BME280;13360;48.152;-1.788;2022-12-20T13:25:34;104101.00;;;13.30;100.00
25430;BME280;13360;48.152;-1.788;2022-12-20T13:30:44;104078.63;;;13.25;100.00
25430;BME280;13360;48.152;-1.788;2022-12-20T13:33:42;104054.19;;;13.16;100.00
25430;BME280;13360;48.152;-1.788;2022-12-20T13:43:48;104018.88;;;13.23;100.00
25430;BME280;13360;48.152;-1.788;2022-12-20T13:46:42;104023.13;;;13.25;100.00
25430;BME280;13360;48.152;-1.788;2022-12-20T13:49:21;104015.63;;;13.26;100.00
25430;BME280;13360;48.152;-1.788;2022-12-20T13:51:48;103986.28;;;13.18;100.00
25430;BME280;13360;48.152;-1.788;2022-12-20T13:54:30;103976.22;;;13.17;100.00
25430;BME280;13360;48.152;-1.788;2022-12-20T13:56:55;103963.13;;;13.24;100.00
25430;BME280;13360;48.152;-1.788;2022-12-20T13:59:26;103945.38;;;13.25;100.00
25430;BME280;13360;48.152;-1.788;2022-12-20T14:01:57;103934.66;;;13.29;100.00
25430;BME280;13360;48.152;-1.788;2022-12-20T14:04:26;103914.13;;;13.18;100.00